createdAt,value
2022-08-31T00:00:24.256Z,17.30
2022-08-31T00:03:10.221Z,17.30
2022-08-31T00:05:40.657Z,17.20
2022-08-31T00:08:09.365Z,17.20
2022-08-31T00:10:41.497Z,17.10
2022-08-31T00:13:13.558Z,17.10
2022-08-31T00:15:42.053Z,17.10
2022-08-31T00:18:10.816Z,17.00
2022-08-31T00:20:40.379Z,17.00
2022-08-31T00:23:10.928Z,17.00
2022-08-31T00:25:41.287Z,17.00
2022-08-31T00:28:10.305Z,17.00
2022-08-31T00:30:38.521Z,16.90
2022-08-31T00:33:07.338Z,16.90
2022-08-31T00:35:37.258Z,16.90
2022-08-31T00:38:07.291Z,16.90
2022-08-31T00:40:44.379Z,16.90
2022-08-31T00:43:13.877Z,16.80
2022-08-31T00:45:42.025Z,16.80
2022-08-31T00:48:10.201Z,16.80
2022-08-31T00:50:38.319Z,16.80
2022-08-31T00:53:07.859Z,16.70
2022-08-31T00:55:38.148Z,16.70
2022-08-31T00:58:10.335Z,16.70
2022-08-31T01:00:40.420Z,16.70
2022-08-31T01:03:10.295Z,16.60
2022-08-31T01:05:39.564Z,16.60
2022-08-31T01:08:09.762Z,16.50
2022-08-31T01:10:40.924Z,16.50
2022-08-31T01:13:12.252Z,16.50
2022-08-31T01:15:45.632Z,16.50
2022-08-31T01:18:14.021Z,16.60
2022-08-31T01:20:55.508Z,16.70
2022-08-31T01:23:28.513Z,16.70
2022-08-31T01:25:58.751Z,16.80
2022-08-31T01:28:27.451Z,16.90
2022-08-31T01:31:05.626Z,16.90
2022-08-31T01:33:35.303Z,17.00
2022-08-31T01:36:03.961Z,17.00
2022-08-31T01:38:35.443Z,17.10
2022-08-31T01:41:03.898Z,17.10
2022-08-31T01:43:34.002Z,17.10
2022-08-31T01:46:02.708Z,17.00
2022-08-31T01:48:33.366Z,17.00
2022-08-31T01:51:02.772Z,17.00
2022-08-31T01:53:32.041Z,16.90
2022-08-31T01:56:01.728Z,16.90
2022-08-31T01:58:29.918Z,16.90
2022-08-31T02:00:58.260Z,16.80
2022-08-31T02:03:26.384Z,16.80
2022-08-31T02:08:21.633Z,16.70
2022-08-31T02:10:49.806Z,16.70
2022-08-31T02:13:19.574Z,16.70
2022-08-31T02:15:47.830Z,16.70
2022-08-31T02:18:15.951Z,16.70
2022-08-31T02:20:46.081Z,16.70
2022-08-31T02:23:14.251Z,16.70
2022-08-31T02:25:42.396Z,16.70
2022-08-31T02:28:12.769Z,16.80
2022-08-31T02:30:42.909Z,16.80
2022-08-31T02:33:11.394Z,16.90
2022-08-31T02:35:39.578Z,17.00
2022-08-31T02:38:08.814Z,17.00
2022-08-31T02:40:38.936Z,17.10
2022-08-31T02:43:16.225Z,17.10
2022-08-31T02:45:54.576Z,17.00
2022-08-31T02:48:23.399Z,17.00
2022-08-31T02:50:53.524Z,16.90
2022-08-31T02:53:24.588Z,16.90
2022-08-31T02:55:53.017Z,16.80
2022-08-31T02:58:24.091Z,16.80
2022-08-31T03:00:54.202Z,16.80
2022-08-31T03:03:23.056Z,16.80
2022-08-31T03:05:51.628Z,16.80
2022-08-31T03:08:20.141Z,16.80
2022-08-31T03:10:48.321Z,16.70
2022-08-31T03:13:16.459Z,16.60
2022-08-31T03:15:45.073Z,16.60
2022-08-31T03:18:14.754Z,16.50
2022-08-31T03:20:43.103Z,16.50
2022-08-31T03:23:12.281Z,16.50
2022-08-31T03:25:40.361Z,16.50
2022-08-31T03:28:08.774Z,16.40
2022-08-31T03:30:36.904Z,16.40
2022-08-31T03:33:05.480Z,16.30
2022-08-31T03:35:35.202Z,16.30
2022-08-31T03:38:03.413Z,16.30
2022-08-31T03:40:32.059Z,16.20
2022-08-31T03:43:00.677Z,16.10
2022-08-31T03:45:32.044Z,16.10
2022-08-31T03:48:00.508Z,16.00
2022-08-31T03:50:28.812Z,16.00
2022-08-31T03:52:58.333Z,16.00
2022-08-31T03:55:28.648Z,16.00
2022-08-31T03:57:56.938Z,15.90
2022-08-31T04:00:25.915Z,15.90
2022-08-31T04:03:00.117Z,15.80
2022-08-31T04:05:29.231Z,15.80
2022-08-31T04:07:58.912Z,15.80
2022-08-31T04:10:27.050Z,15.80
2022-08-31T04:12:55.709Z,15.80
2022-08-31T04:15:24.838Z,15.80
2022-08-31T04:17:57.238Z,15.80
2022-08-31T04:20:29.832Z,15.80
2022-08-31T04:22:59.784Z,15.80
2022-08-31T04:25:27.929Z,15.70
2022-08-31T04:27:56.780Z,15.70
2022-08-31T04:30:26.535Z,15.70
2022-08-31T04:32:54.905Z,15.80
2022-08-31T04:35:23.199Z,15.80
2022-08-31T04:37:51.343Z,15.80
2022-08-31T04:40:25.527Z,15.80
2022-08-31T04:42:54.619Z,15.80
2022-08-31T04:45:23.107Z,15.70
2022-08-31T04:47:51.215Z,15.70
2022-08-31T04:50:19.503Z,15.70
2022-08-31T04:53:03.633Z,15.70
2022-08-31T04:55:33.784Z,15.70
2022-08-31T04:58:01.882Z,15.70
2022-08-31T05:00:30.078Z,15.70
2022-08-31T05:02:58.913Z,15.70
2022-08-31T05:05:27.115Z,15.70
2022-08-31T05:07:55.219Z,15.80
2022-08-31T05:10:24.755Z,15.80
2022-08-31T05:12:54.350Z,15.70
2022-08-31T05:15:22.432Z,15.70
2022-08-31T05:17:50.583Z,15.80
2022-08-31T05:20:19.064Z,15.80
2022-08-31T05:22:47.179Z,15.80
2022-08-31T05:25:15.327Z,15.80
2022-08-31T05:27:43.436Z,15.70
2022-08-31T05:30:13.792Z,15.70
2022-08-31T05:32:42.129Z,15.70
2022-08-31T05:35:10.210Z,15.70
2022-08-31T05:37:38.385Z,15.70
2022-08-31T05:40:07.980Z,15.70
2022-08-31T05:42:36.604Z,15.80
2022-08-31T05:45:05.357Z,15.80
2022-08-31T05:47:34.953Z,15.90
2022-08-31T05:50:03.136Z,16.00
2022-08-31T05:52:36.684Z,16.20
2022-08-31T05:55:05.326Z,16.20
2022-08-31T05:57:33.512Z,16.20
2022-08-31T06:00:01.736Z,16.30
2022-08-31T06:02:29.844Z,16.30
2022-08-31T06:04:59.674Z,16.40
2022-08-31T06:07:27.906Z,16.40
2022-08-31T06:09:56.025Z,16.60
2022-08-31T06:12:26.013Z,16.70
2022-08-31T06:14:55.421Z,16.80
2022-08-31T06:17:24.363Z,16.90
2022-08-31T06:19:52.600Z,17.00
2022-08-31T06:22:23.469Z,17.00
2022-08-31T06:24:52.023Z,17.10
2022-08-31T06:27:20.249Z,17.20
2022-08-31T06:29:49.329Z,17.30
2022-08-31T06:32:17.491Z,17.40
2022-08-31T06:34:45.724Z,17.50
2022-08-31T06:37:18.948Z,17.50
2022-08-31T06:39:49.005Z,17.50
2022-08-31T06:42:17.621Z,17.60
2022-08-31T06:44:45.864Z,17.70
2022-08-31T06:47:13.944Z,17.70
2022-08-31T06:49:42.047Z,17.80
2022-08-31T06:52:10.200Z,17.80
2022-08-31T06:54:38.394Z,17.80
2022-08-31T06:57:08.074Z,18.00
2022-08-31T06:59:36.243Z,18.10
2022-08-31T07:02:04.676Z,18.20
2022-08-31T07:04:35.383Z,18.30
2022-08-31T07:07:03.998Z,18.40
2022-08-31T07:09:32.131Z,18.50
2022-08-31T07:12:00.354Z,18.50
2022-08-31T07:14:29.827Z,18.60
2022-08-31T07:16:59.859Z,18.70
2022-08-31T07:19:28.301Z,18.80
2022-08-31T07:21:58.301Z,18.90
2022-08-31T07:24:30.306Z,18.90
2022-08-31T07:27:00.220Z,19.00
2022-08-31T07:29:37.786Z,19.10
2022-08-31T07:32:06.018Z,19.10
2022-08-31T07:34:36.107Z,19.10
2022-08-31T07:37:23.601Z,19.00
2022-08-31T07:40:10.240Z,19.00
2022-08-31T07:42:40.730Z,18.90
2022-08-31T07:45:13.317Z,18.90
2022-08-31T07:47:45.324Z,18.90
2022-08-31T07:50:14.364Z,19.00
2022-08-31T07:52:48.466Z,18.90
2022-08-31T07:55:18.228Z,18.90
2022-08-31T07:57:46.749Z,18.90
2022-08-31T08:00:21.001Z,18.90
2022-08-31T08:02:53.264Z,19.00
2022-08-31T08:05:27.606Z,19.00
2022-08-31T08:08:07.290Z,19.10
2022-08-31T08:10:42.033Z,19.10
2022-08-31T08:13:12.607Z,19.20
2022-08-31T08:15:42.380Z,19.30
2022-08-31T08:18:13.382Z,19.40
2022-08-31T08:20:42.030Z,19.50
2022-08-31T08:23:14.088Z,19.70
2022-08-31T08:25:43.132Z,19.80
2022-08-31T08:28:38.273Z,19.80
2022-08-31T08:31:07.924Z,20.00
2022-08-31T08:33:37.194Z,20.20
2022-08-31T08:36:08.420Z,20.30
2022-08-31T08:38:39.003Z,20.40
2022-08-31T08:41:13.176Z,20.40
2022-08-31T08:43:48.032Z,20.40
2022-08-31T08:46:37.374Z,20.50
2022-08-31T08:49:18.085Z,20.60
2022-08-31T08:51:48.296Z,20.60
2022-08-31T08:54:25.666Z,20.70
2022-08-31T08:56:53.895Z,20.80
2022-08-31T08:59:22.027Z,21.00
2022-08-31T09:02:06.606Z,21.10
2022-08-31T09:05:01.265Z,21.00
2022-08-31T09:07:53.407Z,20.90
2022-08-31T09:10:32.498Z,20.80
2022-08-31T09:13:11.841Z,20.70
2022-08-31T09:16:04.549Z,20.70
2022-08-31T09:18:45.935Z,20.50
2022-08-31T09:21:22.313Z,20.40
2022-08-31T09:23:59.621Z,20.30
2022-08-31T09:26:27.983Z,20.30
2022-08-31T09:28:57.024Z,20.40
2022-08-31T09:31:34.719Z,20.50
2022-08-31T09:34:06.991Z,20.60
2022-08-31T09:36:40.952Z,20.70
2022-08-31T09:39:17.583Z,20.80
2022-08-31T09:41:47.006Z,20.90
2022-08-31T09:44:25.535Z,20.90
2022-08-31T09:47:00.693Z,21.00
2022-08-31T09:49:33.663Z,21.00
2022-08-31T09:52:20.525Z,20.90
2022-08-31T09:55:14.451Z,20.80
2022-08-31T09:57:54.483Z,20.80
2022-08-31T10:00:34.453Z,20.70
2022-08-31T10:03:13.611Z,20.70
2022-08-31T10:05:44.683Z,20.80
2022-08-31T10:08:39.821Z,21.00
2022-08-31T10:11:13.556Z,21.10
2022-08-31T10:13:46.824Z,21.10
2022-08-31T10:16:26.066Z,21.20
2022-08-31T10:19:01.115Z,21.10
2022-08-31T10:21:44.010Z,21.20
2022-08-31T10:24:21.846Z,21.40
2022-08-31T10:26:57.159Z,21.50
2022-08-31T10:29:33.692Z,21.70
2022-08-31T10:32:09.340Z,21.80
2022-08-31T10:34:59.776Z,21.90
2022-08-31T10:37:38.057Z,22.00
2022-08-31T10:40:10.403Z,22.00
2022-08-31T10:42:44.011Z,22.10
2022-08-31T10:45:18.899Z,22.00
2022-08-31T10:47:50.213Z,22.00
2022-08-31T10:50:28.950Z,21.90
2022-08-31T10:53:09.140Z,22.10
2022-08-31T10:55:47.112Z,22.30
2022-08-31T10:58:22.264Z,22.50
2022-08-31T11:00:55.498Z,22.60
2022-08-31T11:03:46.064Z,22.70
2022-08-31T11:06:23.609Z,22.70
2022-08-31T11:09:02.779Z,22.40
2022-08-31T11:11:43.335Z,22.30
2022-08-31T11:14:50.044Z,22.20
2022-08-31T11:17:35.455Z,22.20
2022-08-31T11:20:24.213Z,22.10
2022-08-31T11:23:16.549Z,22.10
2022-08-31T11:26:31.940Z,22.00
2022-08-31T11:29:13.398Z,22.00
2022-08-31T11:31:42.663Z,22.00
2022-08-31T11:34:17.310Z,22.10
2022-08-31T11:36:51.122Z,22.20
2022-08-31T11:39:36.215Z,22.30
2022-08-31T11:42:12.452Z,22.40
2022-08-31T11:45:01.852Z,22.60
2022-08-31T11:47:38.825Z,22.80
2022-08-31T11:50:31.423Z,22.80
2022-08-31T11:53:18.126Z,22.70
2022-08-31T11:55:49.370Z,22.60
2022-08-31T11:58:25.966Z,22.60
2022-08-31T12:01:03.668Z,22.60
2022-08-31T12:03:52.452Z,22.50
2022-08-31T12:07:00.883Z,22.50
2022-08-31T12:10:06.928Z,22.50
2022-08-31T12:12:49.627Z,22.50
2022-08-31T12:15:26.192Z,22.50
2022-08-31T12:18:07.182Z,22.60
2022-08-31T12:21:09.909Z,22.70
2022-08-31T12:23:43.208Z,22.90
2022-08-31T12:26:34.670Z,23.20
2022-08-31T12:29:25.878Z,23.40
2022-08-31T12:32:14.840Z,23.50
2022-08-31T12:34:49.016Z,23.60
2022-08-31T12:37:22.993Z,23.50
2022-08-31T12:40:05.758Z,23.40
2022-08-31T12:42:35.481Z,23.30
2022-08-31T12:45:06.011Z,23.30
2022-08-31T12:47:43.674Z,23.40
2022-08-31T12:50:19.235Z,23.50
2022-08-31T12:53:15.561Z,23.40
2022-08-31T12:55:52.248Z,23.40
2022-08-31T12:58:43.468Z,23.30
2022-08-31T13:01:14.800Z,23.30
2022-08-31T13:03:54.011Z,23.40
2022-08-31T13:06:27.088Z,23.40
2022-08-31T13:08:56.030Z,23.40
2022-08-31T13:11:34.938Z,23.40
2022-08-31T13:14:13.003Z,23.50
2022-08-31T13:16:44.213Z,23.60
2022-08-31T13:19:22.857Z,23.60
2022-08-31T13:21:53.060Z,23.80
2022-08-31T13:24:29.047Z,23.90
2022-08-31T13:27:10.222Z,24.00
2022-08-31T13:29:44.295Z,24.20
2022-08-31T13:32:14.643Z,24.30
2022-08-31T13:34:44.414Z,24.30
2022-08-31T13:37:19.504Z,24.30
2022-08-31T13:39:48.406Z,24.40
2022-08-31T13:42:29.556Z,24.50
2022-08-31T13:45:01.784Z,24.50
2022-08-31T13:47:47.553Z,24.30
2022-08-31T13:50:28.670Z,24.30
2022-08-31T13:53:36.041Z,24.30
2022-08-31T13:55:48.884Z,24.30
2022-08-31T13:58:28.310Z,24.20
2022-08-31T14:01:22.145Z,24.20
2022-08-31T14:04:00.029Z,24.10
2022-08-31T14:06:34.910Z,24.00
2022-08-31T14:09:17.089Z,24.00
2022-08-31T14:11:53.172Z,23.90
2022-08-31T14:14:40.176Z,23.80
2022-08-31T14:17:13.501Z,23.80
2022-08-31T14:19:42.937Z,23.80
2022-08-31T14:22:18.295Z,23.70
2022-08-31T14:24:46.496Z,23.80
2022-08-31T14:27:17.378Z,23.80
2022-08-31T14:29:45.560Z,23.80
2022-08-31T14:32:14.600Z,23.60
2022-08-31T14:34:47.219Z,23.60
2022-08-31T14:37:22.333Z,23.50
2022-08-31T14:39:52.031Z,23.50
2022-08-31T14:42:24.917Z,23.60
2022-08-31T14:44:58.752Z,23.60
2022-08-31T14:47:29.455Z,23.60
2022-08-31T14:50:05.951Z,23.70
2022-08-31T14:52:37.676Z,23.80
2022-08-31T14:55:09.061Z,23.90
2022-08-31T14:57:39.445Z,24.00
2022-08-31T15:00:09.768Z,24.00
2022-08-31T15:02:38.450Z,23.90
2022-08-31T15:05:10.371Z,23.90
2022-08-31T15:07:42.510Z,23.80
2022-08-31T15:10:12.949Z,23.80
2022-08-31T15:12:41.564Z,23.80
2022-08-31T15:15:11.350Z,23.80
2022-08-31T15:17:39.718Z,23.80
2022-08-31T15:20:11.397Z,23.80
2022-08-31T15:22:42.352Z,23.80
2022-08-31T15:25:12.959Z,23.80
2022-08-31T15:27:44.018Z,23.80
2022-08-31T15:30:14.703Z,23.80
2022-08-31T15:32:46.860Z,23.80
2022-08-31T15:35:17.894Z,23.90
2022-08-31T15:37:56.329Z,24.00
2022-08-31T15:40:25.472Z,24.20
2022-08-31T15:42:57.271Z,24.30
2022-08-31T15:45:29.877Z,24.40
2022-08-31T15:48:16.517Z,24.60
2022-08-31T15:50:52.698Z,24.80
2022-08-31T15:53:27.407Z,24.90
2022-08-31T15:55:55.562Z,25.10
2022-08-31T15:58:25.279Z,25.10
2022-08-31T16:00:53.538Z,25.00
2022-08-31T16:03:21.668Z,24.90
2022-08-31T16:05:49.775Z,24.70
2022-08-31T16:08:19.424Z,24.50
2022-08-31T16:10:49.320Z,24.30
2022-08-31T16:13:17.762Z,24.10
2022-08-31T16:15:51.394Z,23.90
2022-08-31T16:18:21.750Z,23.90
2022-08-31T16:20:50.557Z,23.80
2022-08-31T16:23:18.899Z,23.90
2022-08-31T16:25:49.455Z,24.00
2022-08-31T16:28:19.578Z,24.10
2022-08-31T16:30:47.976Z,24.20
2022-08-31T16:33:16.080Z,24.30
2022-08-31T16:35:45.974Z,24.40
2022-08-31T16:38:15.125Z,24.50
2022-08-31T16:40:43.963Z,24.40
2022-08-31T16:43:13.751Z,24.40
2022-08-31T16:45:42.752Z,24.40
2022-08-31T16:48:29.628Z,24.30
2022-08-31T16:50:58.431Z,24.30
2022-08-31T16:53:26.569Z,24.20
2022-08-31T16:55:55.497Z,24.10
2022-08-31T16:58:48.131Z,24.10
2022-08-31T17:01:15.098Z,24.10
2022-08-31T17:03:46.961Z,24.00
2022-08-31T17:06:15.901Z,24.00
2022-08-31T17:08:45.580Z,23.90
2022-08-31T17:11:16.782Z,23.70
2022-08-31T17:13:47.456Z,23.50
2022-08-31T17:16:21.438Z,23.40
2022-08-31T17:18:52.511Z,23.30
2022-08-31T17:21:23.006Z,23.20
2022-08-31T17:23:52.435Z,23.00
2022-08-31T17:26:21.783Z,22.90
2022-08-31T17:29:00.164Z,22.80
2022-08-31T17:31:30.018Z,22.70
2022-08-31T17:33:58.876Z,22.60
2022-08-31T17:36:35.330Z,22.50
2022-08-31T17:39:06.025Z,22.50
2022-08-31T17:41:34.211Z,22.40
2022-08-31T17:44:04.794Z,22.30
2022-08-31T17:46:33.453Z,22.20
2022-08-31T17:49:02.099Z,22.10
2022-08-31T17:51:34.760Z,22.00
2022-08-31T17:54:07.683Z,21.90
2022-08-31T17:56:44.220Z,21.80
2022-08-31T17:59:19.144Z,21.80
2022-08-31T18:01:50.279Z,21.70
2022-08-31T18:04:20.627Z,21.70
2022-08-31T18:06:51.764Z,21.60
2022-08-31T18:09:21.666Z,21.50
2022-08-31T18:11:49.861Z,21.40
2022-08-31T18:14:21.524Z,21.40
2022-08-31T18:16:54.456Z,21.30
2022-08-31T18:19:27.326Z,21.30
2022-08-31T18:21:57.187Z,21.20
2022-08-31T18:24:25.877Z,21.10
2022-08-31T18:26:54.363Z,21.10
2022-08-31T18:29:25.098Z,21.00
2022-08-31T18:31:57.094Z,20.90
2022-08-31T18:34:26.721Z,20.90
2022-08-31T18:36:56.438Z,20.90
2022-08-31T18:39:48.079Z,20.80
2022-08-31T18:42:32.510Z,20.80
2022-08-31T18:45:19.148Z,20.70
2022-08-31T18:48:13.972Z,20.60
2022-08-31T18:50:42.532Z,20.60
2022-08-31T18:53:15.289Z,20.60
2022-08-31T18:55:51.886Z,20.60
2022-08-31T18:58:20.171Z,20.60
2022-08-31T19:00:57.562Z,20.60
2022-08-31T19:03:27.311Z,20.60
2022-08-31T19:05:56.662Z,20.60
2022-08-31T19:08:25.256Z,20.60
2022-08-31T19:10:58.170Z,20.50
2022-08-31T19:13:31.494Z,20.50
2022-08-31T19:16:10.750Z,20.40
2022-08-31T19:18:44.149Z,20.30
2022-08-31T19:21:18.381Z,20.20
2022-08-31T19:23:46.999Z,20.10
2022-08-31T19:26:23.796Z,20.10
2022-08-31T19:28:52.088Z,20.00
2022-08-31T19:31:23.331Z,20.00
2022-08-31T19:33:56.366Z,20.00
2022-08-31T19:36:27.303Z,19.90
2022-08-31T19:38:57.619Z,19.90
2022-08-31T19:41:27.747Z,19.80
2022-08-31T19:44:07.754Z,19.80
2022-08-31T19:46:39.690Z,19.80
2022-08-31T19:49:11.202Z,19.80
2022-08-31T19:51:41.188Z,19.70
2022-08-31T19:54:11.625Z,19.60
2022-08-31T19:56:41.383Z,19.50
2022-08-31T19:59:10.394Z,19.50
2022-08-31T20:01:40.602Z,19.50
2022-08-31T20:04:15.889Z,19.40
2022-08-31T20:06:45.359Z,19.40
2022-08-31T20:09:14.766Z,19.30
2022-08-31T20:11:47.511Z,19.20
2022-08-31T20:14:16.804Z,19.20
2022-08-31T20:16:47.083Z,19.20
2022-08-31T20:19:24.622Z,19.10
2022-08-31T20:21:54.315Z,19.10
2022-08-31T20:24:25.522Z,19.10
2022-08-31T20:27:01.704Z,19.10
2022-08-31T20:29:38.258Z,19.10
2022-08-31T20:32:08.304Z,19.00
2022-08-31T20:34:38.266Z,19.00
2022-08-31T20:37:06.551Z,19.00
2022-08-31T20:39:35.387Z,19.00
2022-08-31T20:42:03.908Z,18.90
2022-08-31T20:44:34.868Z,18.90
2022-08-31T20:47:23.325Z,18.90
2022-08-31T20:49:54.900Z,18.90
2022-08-31T20:52:25.643Z,18.80
2022-08-31T20:55:01.932Z,18.80
2022-08-31T20:57:31.798Z,18.80
2022-08-31T21:00:05.093Z,18.80
2022-08-31T21:02:34.193Z,18.80
2022-08-31T21:05:36.758Z,18.80
2022-08-31T21:07:58.026Z,18.70
2022-08-31T21:10:36.106Z,18.70
2022-08-31T21:13:08.049Z,18.70
2022-08-31T21:15:36.303Z,18.70
2022-08-31T21:18:04.499Z,18.70
2022-08-31T21:20:35.389Z,18.60
2022-08-31T21:23:03.500Z,18.60
2022-08-31T21:25:31.627Z,18.60
2022-08-31T21:28:02.166Z,18.50
2022-08-31T21:30:30.557Z,18.50
2022-08-31T21:32:58.840Z,18.50
2022-08-31T21:35:27.004Z,18.50
2022-08-31T21:37:58.933Z,18.50
2022-08-31T21:40:28.529Z,18.50
2022-08-31T21:42:56.788Z,18.50
2022-08-31T21:45:25.372Z,18.40
2022-08-31T21:47:53.492Z,18.40
2022-08-31T21:50:21.607Z,18.40
2022-08-31T21:52:53.785Z,18.40
2022-08-31T21:55:24.774Z,18.40
2022-08-31T21:57:56.040Z,18.30
2022-08-31T22:00:29.431Z,18.40
2022-08-31T22:02:58.517Z,18.40
2022-08-31T22:05:31.693Z,18.40
2022-08-31T22:07:59.801Z,18.40
2022-08-31T22:10:31.040Z,18.40
2022-08-31T22:12:59.152Z,18.40
2022-08-31T22:15:28.304Z,18.50
2022-08-31T22:18:15.464Z,18.50
2022-08-31T22:20:46.082Z,18.50
2022-08-31T22:23:14.589Z,18.40
2022-08-31T22:25:44.152Z,18.40
2022-08-31T22:28:13.000Z,18.40
2022-08-31T22:30:41.212Z,18.40
2022-08-31T22:33:09.451Z,18.40
2022-08-31T22:35:40.134Z,18.40
2022-08-31T22:38:09.148Z,18.40
2022-08-31T22:40:39.407Z,18.40
2022-08-31T22:43:09.449Z,18.40
2022-08-31T22:45:47.593Z,18.40
2022-08-31T22:48:17.023Z,18.30
2022-08-31T22:50:45.137Z,18.30
2022-08-31T22:53:13.208Z,18.30
2022-08-31T22:55:43.143Z,18.30
2022-08-31T22:58:13.559Z,18.30
2022-08-31T23:00:41.989Z,18.30
2022-08-31T23:03:14.929Z,18.40
2022-08-31T23:05:43.792Z,18.40
2022-08-31T23:08:12.372Z,18.40
2022-08-31T23:10:40.746Z,18.40
2022-08-31T23:13:08.873Z,18.40
2022-08-31T23:15:38.477Z,18.30
2022-08-31T23:18:10.483Z,18.30
2022-08-31T23:20:41.830Z,18.30
2022-08-31T23:23:10.486Z,18.30
2022-08-31T23:25:41.005Z,18.20
2022-08-31T23:28:09.601Z,18.20
2022-08-31T23:30:41.889Z,18.20
2022-08-31T23:33:10.200Z,18.20
2022-08-31T23:35:38.295Z,18.10
2022-08-31T23:38:06.482Z,18.10
2022-08-31T23:40:34.966Z,18.00
2022-08-31T23:43:04.736Z,18.00
2022-08-31T23:45:33.517Z,18.00
2022-08-31T23:48:03.779Z,18.00
2022-08-31T23:50:31.909Z,18.00
2022-08-31T23:52:59.999Z,18.00
2022-08-31T23:55:31.155Z,18.00
2022-08-31T23:57:59.392Z,18.00
